Terminal Aerodrome Forecast
Issued by NWS

Home | Current Version | Previous Version | Graphics & Text | Print | Product List | Glossary On
Versions: 1 2 3 4 5 6 7 8 9 10 11 12 13 14 15
592
FTUS43 KICT 142342
TAFCNU
TAF
KCNU 142342Z 1500/1524 18009KT P6SM SCT050 BKN150
     FM150100 19013KT P6SM VCTS SCT050CB OVC100
      TEMPO 1501/1503 VRB35G52KT 1SM +TSRA SCT010 OVC035CB
     FM150300 33022G30KT P6SM SCT020 OVC060
     FM150800 33017G22KT P6SM SCT020 OVC080
     FM151000 33017G22KT P6SM SCT020 SCT080=

USA.gov is the U.S. government's official web portal to all federal, state and local government web resources and services.